Lakeway, Texas
Current Conditions -  °F | °C
As of 12:55 PM on Sunday 23 Nov 2014 (Local Time) from KRYW Reporting Station
Clear Clear  
Wind Chill: 77°   Ceiling: Unl
Heat Index: 77°   Visibility: 10mi
Dew Point: 36°   Wind: 14mph
Humidity: 23%   Direction: 260°W
Pressure: 29.56"   Gusts: 29mph
Location:  30.3192°N, 98.0276°W
Report Text: KRYW 231855Z AUTO 26012G25KT 10SM CLR 25/02 A2956 RMK AO2 T02500024
Loading
Personal Weather Stations






























Interactive Weather Map New forecast layout! Learn more

10-Day Weather Forecast

Advertisements
Track Severe Weather on mobile